createdAt,value
2023-04-28T00:00:44.299Z,24.4
2023-04-28T00:01:46.258Z,24.4
2023-04-28T00:02:48.231Z,24.4
2023-04-28T00:03:50.728Z,24.4
2023-04-28T00:04:53.616Z,24.3
2023-04-28T00:05:56.399Z,24.3
2023-04-28T00:06:58.617Z,24.3
2023-04-28T00:08:00.504Z,24.3
2023-04-28T00:09:02.225Z,24.3
2023-04-28T00:10:04.089Z,24.3
2023-04-28T00:11:06.110Z,24.3
2023-04-28T00:12:08.055Z,24.3
2023-04-28T00:13:09.916Z,24.3
2023-04-28T00:14:11.767Z,24.3
2023-04-28T00:15:13.605Z,24.3
2023-04-28T00:16:15.550Z,24.3
2023-04-28T00:17:17.559Z,24.3
2023-04-28T00:18:19.765Z,24.3
2023-04-28T00:19:21.737Z,24.3
2023-04-28T00:20:23.523Z,24.3
2023-04-28T00:21:25.422Z,24.3
2023-04-28T00:22:27.285Z,24.3
2023-04-28T00:23:29.107Z,24.3
2023-04-28T00:24:30.918Z,24.3
2023-04-28T00:25:32.632Z,24.3
2023-04-28T00:26:34.488Z,24.3
2023-04-28T00:27:36.338Z,24.3
2023-04-28T00:28:38.115Z,24.3
2023-04-28T00:29:39.956Z,24.4
2023-04-28T00:30:41.688Z,24.3
2023-04-28T00:31:43.580Z,24.3
2023-04-28T00:32:45.781Z,24.3
2023-04-28T00:33:47.943Z,24.3
2023-04-28T00:34:49.732Z,24.3
2023-04-28T00:35:51.643Z,24.3
2023-04-28T00:36:53.427Z,24.3
2023-04-28T00:37:55.236Z,24.3
2023-04-28T00:38:57.086Z,24.3
2023-04-28T00:39:58.870Z,24.3
2023-04-28T00:41:00.704Z,24.3
2023-04-28T00:42:02.558Z,24.3
2023-04-28T00:43:04.383Z,24.3
2023-04-28T00:44:06.297Z,24.3
2023-04-28T00:45:08.139Z,24.3
2023-04-28T00:46:10.033Z,24.3
2023-04-28T00:47:12.313Z,24.3
2023-04-28T00:48:14.113Z,24.3
2023-04-28T00:49:16.079Z,24.3
2023-04-28T00:50:17.841Z,24.3
2023-04-28T00:51:19.612Z,24.3
2023-04-28T00:52:21.355Z,24.3
2023-04-28T00:53:23.189Z,24.3
2023-04-28T00:54:25.106Z,24.3
2023-04-28T00:55:26.914Z,24.3
2023-04-28T00:56:28.737Z,24.3
2023-04-28T00:57:30.609Z,24.3
2023-04-28T00:58:32.458Z,24.2
2023-04-28T00:59:34.284Z,24.2
2023-04-28T01:00:36.222Z,24.2
2023-04-28T01:01:38.368Z,24.2
2023-04-28T01:02:40.709Z,24.2
2023-04-28T01:03:43.136Z,24.2
2023-04-28T01:04:46.039Z,24.2
2023-04-28T01:05:48.138Z,24.3
2023-04-28T01:06:50.013Z,24.3
2023-04-28T01:07:51.889Z,24.3
2023-04-28T01:08:53.714Z,24.3
2023-04-28T01:09:55.554Z,24.3
2023-04-28T01:10:57.509Z,24.3
2023-04-28T01:11:59.364Z,24.2
2023-04-28T01:13:01.213Z,24.2
2023-04-28T01:14:03.061Z,24.2
2023-04-28T01:15:05.089Z,24.2
2023-04-28T01:16:07.008Z,24.2
2023-04-28T01:17:09.114Z,24.2
2023-04-28T01:18:10.947Z,24.2
2023-04-28T01:19:13.038Z,24.2
2023-04-28T01:20:14.976Z,24.2
2023-04-28T01:21:17.010Z,24.2
2023-04-28T01:22:18.734Z,24.3
2023-04-28T01:23:20.637Z,24.3
2023-04-28T01:24:22.393Z,24.3
2023-04-28T01:25:24.226Z,24.3
2023-04-28T01:26:26.087Z,24.2
2023-04-28T01:27:28.399Z,24.2
2023-04-28T01:28:30.350Z,24.2
2023-04-28T01:29:32.254Z,24.2
2023-04-28T01:30:34.174Z,24.2
2023-04-28T01:31:36.026Z,24.2
2023-04-28T01:32:37.970Z,24.2
2023-04-28T01:33:39.894Z,24.2
2023-04-28T01:34:41.697Z,24.2
2023-04-28T01:35:43.628Z,24.2
2023-04-28T01:36:45.539Z,24.1
2023-04-28T01:37:47.522Z,24.1
2023-04-28T01:38:49.371Z,24.1
2023-04-28T01:39:51.277Z,24.1
2023-04-28T01:40:53.091Z,24.2
2023-04-28T01:41:55.037Z,24.1
2023-04-28T01:42:56.824Z,24.1
2023-04-28T01:43:58.663Z,24.1
2023-04-28T01:45:00.496Z,24.1
2023-04-28T01:46:02.367Z,24.1
2023-04-28T01:47:04.557Z,24.1
2023-04-28T01:48:06.661Z,24.1
2023-04-28T01:49:08.664Z,24.1
2023-04-28T01:50:10.583Z,24.1
2023-04-28T01:51:12.429Z,24.1
2023-04-28T01:52:14.299Z,24.1
2023-04-28T01:53:16.397Z,24.1
2023-04-28T01:54:18.524Z,24.1
2023-04-28T01:55:20.845Z,24
2023-04-28T01:56:22.619Z,24.1
2023-04-28T01:57:24.458Z,24.1
2023-04-28T01:58:26.628Z,24.1
2023-04-28T01:59:28.499Z,24.1
2023-04-28T02:00:30.356Z,24.1
2023-04-28T02:01:32.289Z,24.1
2023-04-28T02:02:34.301Z,24.1
2023-04-28T02:03:36.565Z,24.1
2023-04-28T02:04:39.357Z,24.1
2023-04-28T02:05:41.305Z,24
2023-04-28T02:06:43.139Z,24
2023-04-28T02:07:47.559Z,24
2023-04-28T02:08:49.337Z,24
2023-04-28T02:09:51.029Z,24
2023-04-28T02:10:52.912Z,24
2023-04-28T02:11:54.746Z,24
2023-04-28T02:12:56.592Z,24
2023-04-28T02:13:58.505Z,24
2023-04-28T02:15:00.380Z,24
2023-04-28T02:16:02.296Z,24.1
2023-04-28T02:17:04.509Z,24
2023-04-28T02:18:06.261Z,24
2023-04-28T02:19:08.208Z,24
2023-04-28T02:20:10.097Z,24
2023-04-28T02:21:14.754Z,24
2023-04-28T02:22:16.633Z,24
2023-04-28T02:23:18.482Z,24
2023-04-28T02:24:20.321Z,24
2023-04-28T02:25:22.167Z,24
2023-04-28T02:26:24.041Z,24
2023-04-28T02:27:25.882Z,24
2023-04-28T02:28:27.733Z,24
2023-04-28T02:29:29.477Z,24
2023-04-28T02:30:31.411Z,24
2023-04-28T02:31:33.325Z,24
2023-04-28T02:32:35.586Z,23.9
2023-04-28T02:33:37.789Z,24
2023-04-28T02:34:39.646Z,23.9
2023-04-28T02:35:41.666Z,23.9
2023-04-28T02:36:43.547Z,23.9
2023-04-28T02:37:45.405Z,23.9
2023-04-28T02:38:47.252Z,23.9
2023-04-28T02:39:49.175Z,23.9
2023-04-28T02:40:51.157Z,23.9
2023-04-28T02:41:53.013Z,23.9
2023-04-28T02:42:54.832Z,23.9
2023-04-28T02:43:56.699Z,23.9
2023-04-28T02:44:58.461Z,23.9
2023-04-28T02:46:00.343Z,23.9
2023-04-28T02:47:02.339Z,23.9
2023-04-28T02:48:04.585Z,23.9
2023-04-28T02:49:06.517Z,23.9
2023-04-28T02:50:08.468Z,23.9
2023-04-28T02:51:10.377Z,23.9
2023-04-28T02:52:12.225Z,23.9
2023-04-28T02:53:14.101Z,23.9
2023-04-28T02:54:16.158Z,23.9
2023-04-28T02:55:18.802Z,23.9
2023-04-28T02:56:20.579Z,23.9
2023-04-28T02:57:22.387Z,23.9
2023-04-28T02:58:24.277Z,23.9
2023-04-28T02:59:26.096Z,23.9
2023-04-28T03:00:27.930Z,23.9
2023-04-28T03:01:29.813Z,23.9
2023-04-28T03:02:31.972Z,23.9
2023-04-28T03:03:34.305Z,23.9
2023-04-28T03:04:36.790Z,23.8
2023-04-28T03:05:38.736Z,23.7
2023-04-28T03:06:40.477Z,23.7
2023-04-28T03:07:42.247Z,23.6
2023-04-28T03:08:43.976Z,23.6
2023-04-28T03:09:45.802Z,23.5
2023-04-28T03:10:47.721Z,23.5
2023-04-28T03:11:49.605Z,23.4
2023-04-28T03:12:51.473Z,23.4
2023-04-28T03:13:53.256Z,23.3
2023-04-28T03:14:55.065Z,23.3
2023-04-28T03:15:59.744Z,23.3
2023-04-28T03:17:01.827Z,23.2
2023-04-28T03:18:03.586Z,23.2
2023-04-28T03:19:05.846Z,23.2
2023-04-28T03:20:07.775Z,23.1
2023-04-28T03:21:09.650Z,23.1
2023-04-28T03:22:11.602Z,23.1
2023-04-28T03:23:13.461Z,23.1
2023-04-28T03:24:15.477Z,23.1
2023-04-28T03:25:18.564Z,23.1
2023-04-28T03:26:20.359Z,23.1
2023-04-28T03:27:22.192Z,23.1
2023-04-28T03:28:24.050Z,23.1
2023-04-28T03:29:25.881Z,23.1
2023-04-28T03:30:27.688Z,23.1
2023-04-28T03:31:29.572Z,23.1
2023-04-28T03:32:31.521Z,23.1
2023-04-28T03:33:33.495Z,23
2023-04-28T03:34:35.323Z,23
2023-04-28T03:35:37.108Z,23
2023-04-28T03:36:38.935Z,22.9
2023-04-28T03:37:40.848Z,22.9
2023-04-28T03:38:42.737Z,22.9
2023-04-28T03:39:44.587Z,22.9
2023-04-28T03:40:46.524Z,22.8
2023-04-28T03:41:48.404Z,22.9
2023-04-28T03:42:50.260Z,22.9
2023-04-28T03:43:52.088Z,22.9
2023-04-28T03:44:53.923Z,22.8
2023-04-28T03:45:55.949Z,22.9
2023-04-28T03:46:57.739Z,22.8
2023-04-28T03:47:59.671Z,22.8
2023-04-28T03:49:01.754Z,22.8
2023-04-28T03:50:03.695Z,22.9
2023-04-28T03:51:05.599Z,22.8
2023-04-28T03:52:07.408Z,22.9
2023-04-28T03:53:09.405Z,22.8
2023-04-28T03:54:11.113Z,22.9
2023-04-28T03:55:13.020Z,22.8
2023-04-28T03:56:14.969Z,22.8
2023-04-28T03:57:19.730Z,22.9
2023-04-28T03:58:21.498Z,22.9
2023-04-28T03:59:23.171Z,22.8
2023-04-28T04:00:25.157Z,22.9
2023-04-28T04:01:27.967Z,22.8
2023-04-28T04:02:29.997Z,22.8
2023-04-28T04:03:32.427Z,22.8
2023-04-28T04:04:35.727Z,22.8
2023-04-28T04:05:38.555Z,22.9
2023-04-28T04:06:40.580Z,22.8
2023-04-28T04:07:42.427Z,22.8
2023-04-28T04:08:44.277Z,22.8
2023-04-28T04:09:46.124Z,22.8
2023-04-28T04:10:47.962Z,22.8
2023-04-28T04:11:49.739Z,22.8
2023-04-28T04:12:54.650Z,22.8
2023-04-28T04:13:56.593Z,22.9
2023-04-28T04:14:58.459Z,22.9
2023-04-28T04:16:00.397Z,22.9
2023-04-28T04:17:02.467Z,22.9
2023-04-28T04:18:04.362Z,22.9
2023-04-28T04:19:06.313Z,22.9
2023-04-28T04:20:08.105Z,22.9
2023-04-28T04:21:09.994Z,22.9
2023-04-28T04:22:11.712Z,23
2023-04-28T04:23:13.546Z,23
2023-04-28T04:24:15.653Z,23
2023-04-28T04:25:18.553Z,23
2023-04-28T04:26:24.603Z,23
2023-04-28T04:27:26.568Z,23
2023-04-28T04:28:28.337Z,23.1
2023-04-28T04:29:30.110Z,23.1
2023-04-28T04:30:31.891Z,23.2
2023-04-28T04:31:33.912Z,23.2
2023-04-28T04:32:36.019Z,23.3
2023-04-28T04:33:37.886Z,23.3
2023-04-28T04:34:39.799Z,23.4
2023-04-28T04:35:41.687Z,23.4
2023-04-28T04:36:43.604Z,23.5
2023-04-28T04:37:45.488Z,23.6
2023-04-28T04:38:47.285Z,23.6
2023-04-28T04:39:49.096Z,23.7
2023-04-28T04:40:50.951Z,23.8
2023-04-28T04:41:52.744Z,23.9
2023-04-28T04:42:54.651Z,23.9
2023-04-28T04:43:56.499Z,24
2023-04-28T04:44:58.413Z,24
2023-04-28T04:46:00.314Z,24
2023-04-28T04:47:02.185Z,24
2023-04-28T04:48:04.193Z,24
2023-04-28T04:49:06.067Z,24
2023-04-28T04:50:07.957Z,24
2023-04-28T04:51:09.867Z,24
2023-04-28T04:52:11.605Z,24.1
2023-04-28T04:53:15.555Z,24.1
2023-04-28T04:54:18.436Z,24.2
2023-04-28T04:55:20.258Z,24.2
2023-04-28T04:56:22.193Z,24.3
2023-04-28T04:57:24.045Z,24.3
2023-04-28T04:58:25.709Z,24.3
2023-04-28T04:59:27.658Z,24.4
2023-04-28T05:00:29.685Z,24.4
2023-04-28T05:01:32.131Z,24.4
2023-04-28T05:02:34.427Z,24.5
2023-04-28T05:03:37.159Z,24.6
2023-04-28T05:04:39.927Z,24.6
2023-04-28T05:05:43.732Z,24.7
2023-04-28T05:06:47.970Z,24.7
2023-04-28T05:07:49.819Z,24.7
2023-04-28T05:08:51.664Z,24.8
2023-04-28T05:09:53.500Z,24.8
2023-04-28T05:10:55.334Z,24.8
2023-04-28T05:11:57.203Z,24.8
2023-04-28T05:12:59.070Z,24.9
2023-04-28T05:14:00.903Z,24.9
2023-04-28T05:15:02.762Z,24.9
2023-04-28T05:16:04.599Z,24.9
2023-04-28T05:17:06.460Z,25
2023-04-28T05:18:08.339Z,25
2023-04-28T05:19:10.476Z,25.1
2023-04-28T05:20:12.902Z,25.1
2023-04-28T05:21:14.927Z,25.1
2023-04-28T05:22:17.021Z,25.1
2023-04-28T05:23:19.119Z,25.1
2023-04-28T05:24:21.041Z,25.2
2023-04-28T05:25:22.853Z,25.3
2023-04-28T05:26:24.740Z,25.3
2023-04-28T05:27:27.492Z,25.3
2023-04-28T05:28:29.725Z,25.4
2023-04-28T05:29:34.200Z,25.4
2023-04-28T05:30:36.194Z,25.4
2023-04-28T05:31:38.086Z,25.4
2023-04-28T05:32:40.155Z,25.5
2023-04-28T05:33:42.027Z,25.5
2023-04-28T05:34:43.837Z,25.5
2023-04-28T05:35:45.685Z,25.5
2023-04-28T05:36:47.495Z,25.6
2023-04-28T05:37:49.615Z,25.6
2023-04-28T05:38:51.522Z,25.6
2023-04-28T05:39:53.307Z,25.7
2023-04-28T05:40:55.040Z,25.8
2023-04-28T05:41:56.927Z,25.7
2023-04-28T05:42:58.762Z,25.7
2023-04-28T05:44:00.668Z,25.8
2023-04-28T05:45:02.608Z,25.8
2023-04-28T05:46:06.353Z,25.9
2023-04-28T05:47:32.771Z,26
2023-04-28T05:48:34.844Z,26
2023-04-28T05:49:36.827Z,26.1
2023-04-28T05:50:39.153Z,26.1
2023-04-28T05:51:41.156Z,26.1
2023-04-28T05:52:43.041Z,26.1
2023-04-28T05:53:44.680Z,26.1
2023-04-28T05:54:46.952Z,26.1
2023-04-28T05:55:48.795Z,26.1
2023-04-28T05:56:50.608Z,26.1
2023-04-28T05:57:53.629Z,26.2
2023-04-28T05:58:55.580Z,26.2
2023-04-28T05:59:57.416Z,26.3
2023-04-28T06:00:59.163Z,26.3
2023-04-28T06:02:01.022Z,26.3
2023-04-28T06:03:03.297Z,26.3
2023-04-28T06:04:06.194Z,26.3
2023-04-28T06:05:09.642Z,26.4
2023-04-28T06:06:12.550Z,26.4
2023-04-28T06:07:15.076Z,26.4
2023-04-28T06:08:16.966Z,26.5
2023-04-28T06:09:19.174Z,26.5
2023-04-28T06:10:21.010Z,26.5
2023-04-28T06:11:22.873Z,26.5
2023-04-28T06:12:24.794Z,26.5
2023-04-28T06:13:27.325Z,26.5
2023-04-28T06:14:29.302Z,26.6
2023-04-28T06:15:31.253Z,26.6
2023-04-28T06:16:33.098Z,26.5
2023-04-28T06:17:35.331Z,26.5
2023-04-28T06:18:37.294Z,26.5
2023-04-28T06:19:39.073Z,26.6
2023-04-28T06:20:40.980Z,26.6
2023-04-28T06:21:42.828Z,26.6
2023-04-28T06:22:44.519Z,26.6
2023-04-28T06:23:46.360Z,26.6
2023-04-28T06:24:48.177Z,26.6
2023-04-28T06:25:50.145Z,26.7
2023-04-28T06:26:51.978Z,26.7
2023-04-28T06:27:53.810Z,26.7
2023-04-28T06:28:55.724Z,26.7
2023-04-28T06:29:57.523Z,26.7
2023-04-28T06:30:59.440Z,26.7
2023-04-28T06:32:01.627Z,26.8
2023-04-28T06:33:03.533Z,26.8
2023-04-28T06:34:05.860Z,26.7
2023-04-28T06:35:07.712Z,26.7
2023-04-28T06:36:09.534Z,26.8
2023-04-28T06:37:11.389Z,26.8
2023-04-28T06:38:13.200Z,26.8
2023-04-28T06:39:15.105Z,26.8
2023-04-28T06:40:17.020Z,26.8
2023-04-28T06:41:19.006Z,26.8
2023-04-28T06:42:20.865Z,26.8
2023-04-28T06:43:22.612Z,26.8
2023-04-28T06:44:24.403Z,26.8
2023-04-28T06:45:26.307Z,26.9
2023-04-28T06:46:28.247Z,26.9
2023-04-28T06:47:31.259Z,27
2023-04-28T06:48:33.288Z,27
2023-04-28T06:49:35.026Z,27
2023-04-28T06:50:36.954Z,27
2023-04-28T06:51:38.727Z,27.1
2023-04-28T06:52:40.463Z,27.1
2023-04-28T06:53:42.359Z,27.1
2023-04-28T06:54:44.329Z,27.1
2023-04-28T06:55:46.291Z,27
2023-04-28T06:56:47.993Z,27.1
2023-04-28T06:57:49.837Z,27.1
2023-04-28T06:58:51.584Z,27.1
2023-04-28T06:59:53.531Z,27.1
2023-04-28T07:00:55.479Z,27.1
2023-04-28T07:01:57.692Z,27.1
2023-04-28T07:03:00.174Z,27.1
2023-04-28T07:04:02.834Z,27.1
2023-04-28T07:05:06.062Z,27.2
2023-04-28T07:06:08.008Z,27.2
2023-04-28T07:07:09.974Z,27.2
2023-04-28T07:08:11.810Z,27.3
2023-04-28T07:09:15.346Z,27.2
2023-04-28T07:10:17.265Z,27.3
2023-04-28T07:11:19.168Z,27.3
2023-04-28T07:12:21.161Z,27.3
2023-04-28T07:13:23.112Z,27.3
2023-04-28T07:14:24.870Z,27.4
2023-04-28T07:15:27.151Z,27.4
2023-04-28T07:16:29.254Z,27.4
2023-04-28T07:17:31.522Z,27.4
2023-04-28T07:18:33.520Z,27.5
2023-04-28T07:19:35.334Z,27.5
2023-04-28T07:20:37.196Z,27.4
2023-04-28T07:21:39.166Z,27.4
2023-04-28T07:22:41.012Z,27.4
2023-04-28T07:23:42.792Z,27.4
2023-04-28T07:24:44.574Z,27.4
2023-04-28T07:25:46.424Z,27.4
2023-04-28T07:26:48.247Z,27.3
2023-04-28T07:27:50.762Z,27.3
2023-04-28T07:28:55.487Z,27.4
2023-04-28T07:29:57.330Z,27.4
2023-04-28T07:30:59.603Z,27.4
2023-04-28T07:32:01.472Z,27.4
2023-04-28T07:33:03.672Z,27.4
2023-04-28T07:34:05.747Z,27.4
2023-04-28T07:35:07.950Z,27.4
2023-04-28T07:36:09.882Z,27.4
2023-04-28T07:37:11.796Z,27.4
2023-04-28T07:38:13.832Z,27.4
2023-04-28T07:39:15.835Z,27.4
2023-04-28T07:40:17.763Z,27.4
2023-04-28T07:41:19.945Z,27.5
2023-04-28T07:42:21.821Z,27.5
2023-04-28T07:43:23.735Z,27.5
2023-04-28T07:44:25.542Z,27.5
2023-04-28T07:45:27.408Z,27.5
2023-04-28T07:46:29.307Z,27.6
2023-04-28T07:47:31.606Z,27.6
2023-04-28T07:48:33.660Z,27.6
2023-04-28T07:49:35.485Z,27.6
2023-04-28T07:50:37.297Z,27.6
2023-04-28T07:51:39.142Z,27.6
2023-04-28T07:52:41.050Z,27.7
2023-04-28T07:53:42.947Z,27.7
2023-04-28T07:54:44.712Z,27.7
2023-04-28T07:55:46.542Z,27.7
2023-04-28T07:56:48.530Z,27.7
2023-04-28T07:57:50.504Z,27.7
2023-04-28T07:58:52.418Z,27.6
2023-04-28T07:59:54.260Z,27.6
2023-04-28T08:00:56.091Z,27.6
2023-04-28T08:01:57.994Z,27.6
2023-04-28T08:03:00.278Z,27.5
2023-04-28T08:04:02.756Z,27.4
2023-04-28T08:05:05.904Z,27.4
2023-04-28T08:06:09.114Z,27.3
2023-04-28T08:07:11.211Z,27.3
2023-04-28T08:08:13.063Z,27.3
2023-04-28T08:09:14.849Z,27.3
2023-04-28T08:10:16.698Z,27.3
2023-04-28T08:11:18.610Z,27.3
2023-04-28T08:12:20.362Z,27.3
2023-04-28T08:13:22.192Z,27.3
2023-04-28T08:14:24.106Z,27.3
2023-04-28T08:15:25.792Z,27.3
2023-04-28T08:16:27.682Z,27.3
2023-04-28T08:17:29.980Z,27.3
2023-04-28T08:18:32.136Z,27.3
2023-04-28T08:19:34.433Z,27.4
2023-04-28T08:20:36.260Z,27.3
2023-04-28T08:21:38.113Z,27.4
2023-04-28T08:22:39.980Z,27.4
2023-04-28T08:23:41.963Z,27.4
2023-04-28T08:24:43.878Z,27.4
2023-04-28T08:25:45.758Z,27.4
2023-04-28T08:26:47.568Z,27.4
2023-04-28T08:27:49.436Z,27.4
2023-04-28T08:28:51.309Z,27.4
2023-04-28T08:29:53.761Z,27.4
2023-04-28T08:30:55.648Z,27.4
2023-04-28T08:31:57.766Z,27.4
2023-04-28T08:32:59.682Z,27.4
2023-04-28T08:34:01.868Z,27.4
2023-04-28T08:35:03.791Z,27.4
2023-04-28T08:36:05.658Z,27.4
2023-04-28T08:37:07.569Z,27.5
2023-04-28T08:38:09.500Z,27.5
2023-04-28T08:39:13.008Z,27.5
2023-04-28T08:40:15.675Z,27.5
2023-04-28T08:41:17.586Z,27.5
2023-04-28T08:42:19.459Z,27.4
2023-04-28T08:43:21.481Z,27.4
2023-04-28T08:44:23.632Z,27.4
2023-04-28T08:45:27.229Z,27.5
2023-04-28T08:46:30.142Z,27.4
2023-04-28T08:47:32.454Z,27.4
2023-04-28T08:48:34.852Z,27.4
2023-04-28T08:49:36.677Z,27.4
2023-04-28T08:50:38.549Z,27.4
2023-04-28T08:51:42.102Z,27.4
2023-04-28T08:52:44.032Z,27.3
2023-04-28T08:54:11.555Z,27.3
2023-04-28T08:55:31.491Z,27.2
2023-04-28T08:56:33.254Z,27.2
2023-04-28T08:57:35.285Z,27.2
2023-04-28T08:58:37.231Z,27.2
2023-04-28T08:59:39.076Z,27.2
2023-04-28T09:00:40.850Z,27.3
2023-04-28T09:01:42.590Z,27.3
2023-04-28T09:02:45.321Z,27.3
2023-04-28T09:03:47.896Z,27.3
2023-04-28T09:04:51.325Z,27.4
2023-04-28T09:05:54.467Z,27.4
2023-04-28T09:06:56.465Z,27.5
2023-04-28T09:07:58.312Z,27.5
2023-04-28T09:09:00.150Z,27.5
2023-04-28T09:10:01.999Z,27.5
2023-04-28T09:11:03.810Z,27.5
2023-04-28T09:12:05.593Z,27.5
2023-04-28T09:13:07.532Z,27.5
2023-04-28T09:14:09.453Z,27.6
2023-04-28T09:15:11.398Z,27.6
2023-04-28T09:16:13.360Z,27.5
2023-04-28T09:17:16.271Z,27.5
2023-04-28T09:18:18.170Z,27.5
2023-04-28T09:19:20.112Z,27.5
2023-04-28T09:20:22.019Z,27.5
2023-04-28T09:21:24.051Z,27.5
2023-04-28T09:22:27.114Z,27.5
2023-04-28T09:23:29.205Z,27.5
2023-04-28T09:24:31.045Z,27.5
2023-04-28T09:25:33.043Z,27.5
2023-04-28T09:26:34.875Z,27.5
2023-04-28T09:27:36.705Z,27.6
2023-04-28T09:28:38.660Z,27.6
2023-04-28T09:29:40.513Z,27.6
2023-04-28T09:30:42.599Z,27.6
2023-04-28T09:31:44.470Z,27.6
2023-04-28T09:32:46.647Z,27.6
2023-04-28T09:33:48.696Z,27.6
2023-04-28T09:34:50.501Z,27.6
2023-04-28T09:35:52.246Z,27.5
2023-04-28T09:36:54.299Z,27.5
2023-04-28T09:37:56.180Z,27.6
2023-04-28T09:38:58.217Z,27.5
2023-04-28T09:40:00.085Z,27.5
2023-04-28T09:41:01.937Z,27.5
2023-04-28T09:42:03.930Z,27.6
2023-04-28T09:43:15.235Z,27.6
2023-04-28T09:44:23.950Z,27.6
2023-04-28T09:45:25.699Z,27.6
2023-04-28T09:46:28.069Z,27.6
2023-04-28T09:47:30.388Z,27.6
2023-04-28T09:48:32.333Z,27.6
2023-04-28T09:49:34.865Z,27.6
2023-04-28T09:50:36.895Z,27.5
2023-04-28T09:51:38.608Z,27.5
2023-04-28T09:52:40.491Z,27.5
2023-04-28T09:53:42.359Z,27.4
2023-04-28T09:54:44.184Z,27.4
2023-04-28T09:55:46.038Z,27.4
2023-04-28T09:56:48.553Z,27.4
2023-04-28T09:57:50.554Z,27.3
2023-04-28T09:58:52.296Z,27.2
2023-04-28T09:59:54.046Z,27.2
2023-04-28T10:00:56.000Z,27.2
2023-04-28T10:01:57.963Z,27.1
2023-04-28T10:02:59.862Z,27
2023-04-28T10:04:02.361Z,27
2023-04-28T10:05:04.959Z,27
2023-04-28T10:06:07.890Z,27
2023-04-28T10:07:09.645Z,27
2023-04-28T10:08:11.507Z,27
2023-04-28T10:09:13.327Z,27
2023-04-28T10:10:15.337Z,27
2023-04-28T10:11:17.503Z,27
2023-04-28T10:12:19.310Z,27
2023-04-28T10:13:21.160Z,27
2023-04-28T10:14:23.016Z,26.9
2023-04-28T10:15:24.789Z,26.9
2023-04-28T10:16:26.703Z,26.9
2023-04-28T10:17:29.095Z,26.9
2023-04-28T10:18:31.549Z,26.8
2023-04-28T10:19:33.388Z,26.8
2023-04-28T10:20:35.245Z,26.8
2023-04-28T10:21:37.181Z,26.8
2023-04-28T10:22:39.472Z,26.8
2023-04-28T10:23:41.242Z,26.8
2023-04-28T10:24:42.960Z,26.8
2023-04-28T10:25:44.708Z,26.8
2023-04-28T10:26:46.712Z,26.8
2023-04-28T10:27:48.779Z,26.7
2023-04-28T10:28:50.598Z,26.8
2023-04-28T10:29:52.659Z,26.8
2023-04-28T10:30:54.519Z,26.8
2023-04-28T10:31:56.501Z,26.8
2023-04-28T10:32:59.349Z,26.8
2023-04-28T10:34:01.590Z,26.7
2023-04-28T10:35:03.512Z,26.7
2023-04-28T10:36:05.479Z,26.7
2023-04-28T10:37:07.379Z,26.8
2023-04-28T10:38:09.271Z,26.7
2023-04-28T10:39:11.128Z,26.7
2023-04-28T10:40:13.262Z,26.7
2023-04-28T10:41:15.629Z,26.6
2023-04-28T10:42:17.499Z,26.6
2023-04-28T10:43:19.263Z,26.6
2023-04-28T10:44:21.707Z,26.6
2023-04-28T10:45:23.572Z,26.6
2023-04-28T10:46:25.501Z,26.6
2023-04-28T10:47:27.752Z,26.6
2023-04-28T10:48:29.784Z,26.6
2023-04-28T10:49:31.649Z,26.6
2023-04-28T10:50:38.937Z,26.5
2023-04-28T10:51:41.104Z,26.5
2023-04-28T10:52:42.983Z,26.5
2023-04-28T10:53:45.232Z,26.5
2023-04-28T10:54:49.158Z,26.5
2023-04-28T10:55:51.052Z,26.5
2023-04-28T10:56:52.907Z,26.5
2023-04-28T10:57:54.654Z,26.5
2023-04-28T10:58:56.451Z,26.5
2023-04-28T10:59:58.866Z,26.4
2023-04-28T11:01:01.527Z,26.4
2023-04-28T11:02:03.402Z,26.4
2023-04-28T11:03:05.746Z,26.5
2023-04-28T11:04:08.458Z,26.5
2023-04-28T11:05:11.289Z,26.5
2023-04-28T11:06:14.604Z,26.6
2023-04-28T11:07:16.572Z,26.6
2023-04-28T11:08:18.500Z,26.5
2023-04-28T11:09:20.509Z,26.5
2023-04-28T11:10:22.377Z,26.5
2023-04-28T11:11:24.266Z,26.5
2023-04-28T11:12:26.601Z,26.5
2023-04-28T11:13:28.678Z,26.4
2023-04-28T11:14:32.026Z,26.4
2023-04-28T11:15:34.203Z,26.4
2023-04-28T11:16:36.141Z,26.4
2023-04-28T11:17:38.224Z,26.4
2023-04-28T11:18:40.149Z,26.5
2023-04-28T11:19:41.977Z,26.5
2023-04-28T11:20:43.853Z,26.4
2023-04-28T11:21:45.682Z,26.4
2023-04-28T11:22:47.558Z,26.4
2023-04-28T11:23:49.363Z,26.4
2023-04-28T11:24:53.592Z,26.3
2023-04-28T11:25:55.763Z,26.3
2023-04-28T11:26:57.653Z,26.3
2023-04-28T11:27:59.647Z,26.4
2023-04-28T11:29:01.529Z,26.4
2023-04-28T11:30:03.470Z,26.3
2023-04-28T11:31:05.344Z,26.4
2023-04-28T11:32:07.328Z,26.4
2023-04-28T11:33:10.027Z,26.4
2023-04-28T11:34:13.124Z,26.4
2023-04-28T11:35:14.976Z,26.4
2023-04-28T11:36:16.831Z,26.4
2023-04-28T11:37:18.949Z,26.4
2023-04-28T11:38:21.351Z,26.4
2023-04-28T11:39:23.879Z,26.5
2023-04-28T11:40:25.736Z,26.5
2023-04-28T11:41:27.707Z,26.5
2023-04-28T11:42:29.524Z,26.5
2023-04-28T11:43:43.908Z,26.5
2023-04-28T11:44:49.438Z,26.4
2023-04-28T11:45:51.306Z,26.4
2023-04-28T11:46:53.521Z,26.4
2023-04-28T11:47:55.413Z,26.3
2023-04-28T11:48:57.874Z,26.3
2023-04-28T11:49:59.653Z,26.3
2023-04-28T11:51:01.532Z,26.3
2023-04-28T11:52:03.194Z,26.3
2023-04-28T11:53:05.040Z,26.2
2023-04-28T11:54:06.873Z,26.2
2023-04-28T11:55:08.777Z,26.3
2023-04-28T11:56:10.429Z,26.3
2023-04-28T11:57:12.249Z,26.3
2023-04-28T11:58:14.165Z,26.2
2023-04-28T11:59:16.136Z,26.2
2023-04-28T12:00:18.006Z,26.3
2023-04-28T12:01:19.751Z,26.3
2023-04-28T12:02:21.659Z,26.3
2023-04-28T12:03:24.064Z,26.3
2023-04-28T12:04:27.016Z,26.3
2023-04-28T12:05:29.229Z,26.3
2023-04-28T12:06:31.164Z,26.3
2023-04-28T12:07:33.044Z,26.3
2023-04-28T12:08:34.956Z,26.2
2023-04-28T12:09:36.702Z,26.3
2023-04-28T12:10:38.575Z,26.3
2023-04-28T12:11:40.343Z,26.3
2023-04-28T12:12:50.537Z,26.3
2023-04-28T12:13:55.114Z,26.3
2023-04-28T12:14:56.990Z,26.3
2023-04-28T12:15:58.939Z,26.3
2023-04-28T12:17:01.009Z,26.2
2023-04-28T12:18:02.666Z,26.2
2023-04-28T12:19:04.669Z,26.2
2023-04-28T12:20:07.114Z,26.2
2023-04-28T12:21:09.694Z,26.1
2023-04-28T12:22:11.605Z,26.1
2023-04-28T12:23:13.357Z,26.1
2023-04-28T12:24:15.221Z,26.1
2023-04-28T12:25:17.624Z,26.1
2023-04-28T12:26:19.612Z,26.1
2023-04-28T12:27:21.454Z,26.1
2023-04-28T12:28:23.522Z,26.1
2023-04-28T12:29:25.373Z,26.1
2023-04-28T12:30:27.323Z,26.1
2023-04-28T12:31:29.076Z,26.1
2023-04-28T12:32:31.255Z,26.1
2023-04-28T12:33:33.327Z,26.1
2023-04-28T12:34:35.538Z,26.1
2023-04-28T12:35:37.394Z,26.1
2023-04-28T12:36:39.252Z,26
2023-04-28T12:37:41.169Z,26
2023-04-28T12:38:43.037Z,26
2023-04-28T12:39:45.039Z,26
2023-04-28T12:40:48.557Z,26
2023-04-28T12:41:50.279Z,25.9
2023-04-28T12:42:52.284Z,26
2023-04-28T12:43:54.131Z,25.9
2023-04-28T12:44:55.983Z,25.9
2023-04-28T12:45:57.786Z,25.9
2023-04-28T12:46:59.784Z,25.9
2023-04-28T12:48:01.662Z,25.9
2023-04-28T12:49:03.804Z,25.9
2023-04-28T12:50:05.578Z,25.9
2023-04-28T12:51:07.956Z,25.9
2023-04-28T12:52:09.857Z,25.9
2023-04-28T12:53:11.718Z,25.9
2023-04-28T12:54:13.459Z,25.9
2023-04-28T12:55:15.342Z,25.9
2023-04-28T12:56:17.353Z,25.9
2023-04-28T12:57:19.131Z,25.9
2023-04-28T12:58:20.943Z,25.9
2023-04-28T12:59:22.910Z,26
2023-04-28T13:00:24.775Z,26
2023-04-28T13:01:26.835Z,26
2023-04-28T13:02:28.919Z,26
2023-04-28T13:03:31.341Z,26.1
2023-04-28T13:04:33.909Z,26.1
2023-04-28T13:05:36.888Z,26.1
2023-04-28T13:06:38.624Z,26.1
2023-04-28T13:07:40.399Z,26.1
2023-04-28T13:08:42.310Z,26.1
2023-04-28T13:09:44.436Z,26.1
2023-04-28T13:10:47.869Z,26.1
2023-04-28T13:11:49.746Z,26.1
2023-04-28T13:12:51.672Z,26
2023-04-28T13:13:53.427Z,26
2023-04-28T13:14:55.267Z,26
2023-04-28T13:15:57.134Z,26
2023-04-28T13:16:58.988Z,26
2023-04-28T13:18:00.867Z,26
2023-04-28T13:19:03.117Z,26
2023-04-28T13:20:04.988Z,26
2023-04-28T13:21:07.216Z,25.9
2023-04-28T13:22:09.071Z,25.9
2023-04-28T13:23:10.783Z,25.9
2023-04-28T13:24:12.639Z,25.9
2023-04-28T13:25:14.545Z,25.9
2023-04-28T13:26:16.179Z,25.9
2023-04-28T13:27:17.901Z,25.9
2023-04-28T13:28:19.785Z,25.9
2023-04-28T13:29:21.686Z,25.8
2023-04-28T13:30:23.530Z,25.8
2023-04-28T13:31:25.407Z,25.8
2023-04-28T13:32:27.465Z,25.8
2023-04-28T13:33:29.724Z,25.8
2023-04-28T13:34:31.574Z,25.8
2023-04-28T13:35:33.652Z,25.7
2023-04-28T13:36:35.562Z,25.7
2023-04-28T13:37:37.440Z,25.7
2023-04-28T13:38:39.272Z,25.7
2023-04-28T13:39:41.590Z,25.7
2023-04-28T13:40:43.430Z,25.7
2023-04-28T13:41:45.254Z,25.7
2023-04-28T13:42:47.089Z,25.7
2023-04-28T13:43:48.847Z,25.7
2023-04-28T13:44:50.452Z,25.6
2023-04-28T13:45:52.239Z,25.6
2023-04-28T13:46:54.212Z,25.6
2023-04-28T13:47:56.122Z,25.6
2023-04-28T13:48:58.060Z,25.6
2023-04-28T13:49:59.966Z,25.6
2023-04-28T13:51:01.864Z,25.6
2023-04-28T13:52:03.791Z,25.6
2023-04-28T13:53:05.590Z,25.6